Latest Coastal Weather Observations for Laverton

IDV60701

Issued at 11:45 pm EST Thursday 18 September 2014 (issued every 10 minutes, with the page automatically refreshed every 10 minutes)

About coastal observations | Map of coastal stations | Coastal observations for VIC | Marine services | Other Formats
Station Details ID: 087031 Name: LAVERTON RAAF Lat: -37.86 Lon: 144.76 Height: 20.1 m
Data from the previous 72 hours. | See also: Recent months at Laverton
Date/Time
EST
Temp

°C
Wind Pressure Rain
since 9am
mm
Weather Cloud Vis
km
Sea
Height
m
Swell
Dir
 
Speed
knots
Gust
knots
hPa Trend Height
m
Period
s
Dir
18/11:30pm 5.4 NW 6 7 1025.2 - 0.8 - Partly cloudy 10 - - - -
18/11:00pm 5.8 WNW 7 7 1025.3 - 0.8 - Cloudy 10 - - - -
18/10:30pm 6.1 WNW 6 7 1025.3 - 0.8 - Partly cloudy 10 - - - -
18/10:00pm 7.2 WNW 6 9 1025.3 - 0.8 - Partly cloudy 10 - - - -
18/09:30pm 8.0 WNW 6 8 1025.2 - 0.8 - Partly cloudy 10 - - - -
18/09:00pm 9.1 WSW 6 8 1025.1 - 0.8 - Mostly clear 10 - - - -
18/08:30pm 9.6 WSW 5 7 1024.8 - 0.8 - Partly cloudy 10 - - - -
18/08:00pm 10.2 SW 5 7 1024.8 - 0.8 - Cloudy 10 - - - -
18/07:30pm 10.5 S 7 10 1024.7 - 0.8 - Partly cloudy 10 - - - -
18/07:00pm 10.6 SSW 8 11 1024.4 - 0.8 - Partly cloudy 10 - - - -
18/06:30pm 10.7 S 8 11 1024.2 - 0.8 - Partly cloudy 10 - - - -
18/06:00pm 11.2 S 10 15 1024.0 - 0.8 - Cloudy 10 - - - -
18/05:30pm 11.5 S 11 16 1023.7 - 0.8 - - 10 - - - -
18/05:00pm 12.2 S 12 16 1023.4 - 0.8 - Partly cloudy 10 - - - -
18/04:30pm 11.7 S 11 15 1023.1 - 0.8 - Partly cloudy 10 - - - -
18/04:04pm 11.6 SSW 9 12 1023.0 - 0.8 - Partly cloudy 10 - - - -
18/04:00pm 11.5 SSW 9 11 1023.0 - 0.8 - Partly cloudy 10 - - - -
18/03:49pm 10.8 SW 12 17 1023.1 - 0.6 - Partly cloudy 7 - - - -
18/03:30pm 12.2 S 10 15 1022.9 - 0.4 - Partly cloudy 10 - - - -
18/03:00pm 12.2 SSW 12 15 1022.9 - 0.4 - Cloudy 10 - - - -
18/02:30pm 12.1 SW 6 9 1022.9 - 0.4 - Partly cloudy 10 - - - -
18/02:00pm 11.3 SSW 5 10 1023.0 - 0.4 - Partly cloudy 10 - - - -
18/01:30pm 11.1 SSW 13 18 1023.0 - 0.4 - Partly cloudy 10 - - - -
18/01:00pm 13.2 S 11 16 1022.9 - 0.2 - Partly cloudy 10 - - - -
18/12:30pm 11.9 S 11 15 1023.1 - 0.2 - Partly cloudy 10 - - - -
18/12:00pm 11.0 WSW 9 12 1023.2 - 0.2 - Cloudy 10 - - - -
18/11:30am 12.1 SSW 13 20 1023.2 - 0.2 - Partly cloudy 10 - - - -
18/11:03am 12.4 SSW 15 25 1023.2 - 0.2 - Partly cloudy 10 - - - -
18/11:00am 13.1 SSW 14 21 1023.1 - 0.2 - Partly cloudy 10 - - - -
18/10:30am 12.5 SSW 13 16 1023.2 - 0.2 - Partly cloudy 10 - - - -
18/10:00am 11.8 SSW 11 14 1023.2 - 0.0 - Partly cloudy 10 - - - -
18/09:30am 10.9 WSW 12 15 1023.0 - 0.0 - Partly cloudy 10 - - - -
18/09:00am 10.9 SW 12 17 1022.9 - 0.2 - Cloudy 10 - - - -
18/08:30am 10.0 WSW 10 13 1022.7 - 0.2 - Partly cloudy 10 - - - -
18/08:00am 9.3 W 11 15 1022.4 - 0.2 - Partly cloudy 10 - - - -
18/07:30am 7.5 W 9 13 1022.1 - 0.2 - Partly cloudy 10 - - - -
18/07:00am 6.2 W 9 11 1021.8 - 0.2 - - 10 - - - -
18/06:30am 6.5 W 9 12 1021.4 - 0.2 - Partly cloudy 10 - - - -
18/06:00am 6.7 W 11 15 1021.1 - 0.0 - Cloudy 10 - - - -
18/05:30am 6.4 W 10 13 1020.8 - 0.0 - - 10 - - - -
18/05:00am 6.5 W 9 11 1020.4 - 0.0 - Partly cloudy 10 - - - -
18/04:30am 6.4 WNW 8 11 1020.4 - 0.0 - Partly cloudy 10 - - - -
18/04:00am 6.0 W 7 9 1020.2 - 0.0 - Partly cloudy 10 - - - -
18/03:30am 6.3 W 7 10 1020.0 - 0.0 - Partly cloudy 10 - - - -
18/03:00am 6.3 WNW 9 12 1019.9 - 0.0 - Mostly cloudy 10 - - - -
18/02:30am 6.5 W 9 13 1019.8 - 0.0 - Partly cloudy 10 - - - -
18/02:00am 6.8 WNW 8 11 1019.9 - 0.0 - Partly cloudy 10 - - - -
18/01:30am 6.7 W 9 11 1020.0 - 0.0 - - 10 - - - -
18/01:00am 7.0 WNW 11 14 1019.8 - 0.0 - Partly cloudy 10 - - - -
18/12:30am 7.2 WNW 11 13 1020.1 - 0.0 - Partly cloudy 10 - - - -
18/12:00am 6.8 W 11 14 1020.1 - 0.0 - Partly cloudy 10 - - - -
 
Date/Time
EST
Temp

°C
Wind Pressure Rain
since 9am
mm
Weather Cloud Vis
km
Sea
Height
m
Swell
Dir
 
Speed
knots
Gust
knots
hPa Trend Height
m
Period
s
Dir
17/11:30pm 7.0 WNW 11 15 1020.0 - 0.0 - Partly cloudy 10 - - - -
17/11:00pm 6.3 WNW 8 11 1019.9 - 0.0 - - 10 - - - -
17/10:30pm 6.8 WNW 11 13 1019.7 - 0.0 - Partly cloudy 10 - - - -
17/10:00pm 7.8 W 10 13 1019.9 - 0.0 - Partly cloudy 10 - - - -
17/09:30pm 7.8 W 9 12 1019.7 - 0.0 - Partly cloudy 10 - - - -
17/09:00pm 8.8 W 11 15 1019.4 - 0.0 - Cloudy 10 - - - -
17/08:30pm 8.9 W 9 12 1019.2 - 0.0 - Partly cloudy 10 - - - -
17/08:00pm 8.7 W 8 12 1019.0 - 0.0 - Partly cloudy 10 - - - -
17/07:30pm 9.0 W 9 13 1018.6 - 0.0 - Partly cloudy 10 - - - -
17/07:00pm 9.3 W 11 15 1018.5 - 0.0 - Partly cloudy 10 - - - -
17/06:30pm 9.5 W 13 17 1018.1 - 0.0 - Partly cloudy 10 - - - -
17/06:00pm 9.6 WSW 15 26 1017.6 - 0.0 - Cloudy 10 - - - -
17/05:50pm 11.1 WSW 15 25 1017.5 - 0.0 - Partly cloudy 10 - - - -
17/05:30pm 11.7 W 16 23 1017.1 - 0.0 - Partly cloudy 10 - - - -
17/05:00pm 12.5 WSW 17 22 1016.7 - 0.0 - Partly cloudy 10 - - - -
17/04:30pm 12.5 WSW 16 26 1016.0 - 0.0 - Partly cloudy 10 - - - -
17/04:00pm 11.7 WSW 14 19 1015.8 - 0.0 - Partly cloudy 10 - - - -
17/03:38pm 11.5 WSW 14 19 1015.7 - 0.0 - Partly cloudy 10 - - - -
17/03:30pm 10.6 WSW 18 32 1015.7 - 0.0 - Partly cloudy 9 - - - -
17/03:22pm 10.4 WSW 21 32 1015.7 - 0.0 - Partly cloudy 7 - - - -
17/03:19pm 11.2 WSW 19 32 1015.6 - 0.0 - Partly cloudy 10 - - - -
17/03:00pm 13.2 WSW 17 24 1015.1 - 0.0 - Mostly cloudy 10 - - - -
17/02:30pm 12.7 WSW 18 26 1015.0 - 0.0 - Partly cloudy 10 - - - -
17/02:00pm 14.0 W 20 31 1014.5 - 0.0 - Partly cloudy 10 - - - -
17/01:52pm 14.3 WSW 21 31 1014.4 - 0.0 - Partly cloudy 10 - - - -
17/01:30pm 14.6 W 19 26 1014.2 - 0.0 - Partly cloudy 10 - - - -
17/01:08pm 15.5 WSW 20 30 1014.0 - 0.0 - Partly cloudy 10 - - - -
17/01:00pm 15.6 WSW 22 30 1014.0 - 0.0 - Partly cloudy 10 - - - -
17/12:30pm 14.5 W 21 31 1014.2 - 0.0 - Partly cloudy 10 - - - -
17/12:13pm 13.9 WSW 21 31 1014.2 - 0.0 - Partly cloudy 10 - - - -
17/12:00pm 14.7 W 20 29 1014.0 - 0.0 - Mostly cloudy 10 - - - -
17/11:31am 12.7 W 20 30 1014.2 - 0.0 - Partly cloudy 10 - - - -
17/11:30am 12.7 W 21 30 1014.3 - 0.0 - Partly cloudy 10 - - - -
17/11:20am 13.9 W 19 29 1014.1 - 0.0 - Partly cloudy 10 - - - -
17/11:00am 13.2 W 16 21 1014.1 - 0.0 - Partly cloudy 10 - - - -
17/10:30am 14.2 W 18 26 1014.1 - 0.0 - Partly cloudy 10 - - - -
17/10:03am 13.5 W 18 28 1014.0 - 0.0 - Partly cloudy 10 - - - -
17/10:00am 13.4 W 19 27 1014.0 - 0.0 - Partly cloudy 10 - - - -
17/09:50am 13.9 W 18 28 1014.0 - 0.0 - Partly cloudy 10 - - - -
17/09:30am 13.2 W 16 22 1013.9 - 0.0 - Partly cloudy 10 - - - -
17/09:00am 12.5 W 15 22 1013.8 - 1.0 - Mostly clear 10 - - - -
17/08:30am 11.9 W 14 20 1013.8 - - - - 10 - - - -
17/08:00am 10.9 WNW 8 10 1013.8 - - - - 10 - - - -
17/07:30am 9.6 NW 7 8 1013.6 - - - Partly cloudy 10 - - - -
17/07:00am 8.5 NW 7 8 1013.5 - - - Partly cloudy 10 - - - -
17/06:30am 9.5 WNW 7 9 1013.4 - - - Partly cloudy 10 - - - -
17/06:00am 9.7 WNW 9 12 1013.3 - - - Cloudy 10 - - - -
17/05:30am 9.9 WNW 9 12 1013.1 - - - Partly cloudy 10 - - - -
17/05:00am 9.7 NW 9 12 1012.9 - - - Partly cloudy 10 - - - -
17/04:30am 9.3 WNW 9 13 1012.8 - - - Partly cloudy 10 - - - -
17/04:00am 8.6 NW 6 7 1012.8 - - - Partly cloudy 10 - - - -
17/03:30am 8.8 NW 8 10 1012.8 - - - Partly cloudy 10 - - - -
17/03:00am 8.4 NW 9 11 1012.7 - 0.0 - Cloudy 10 - - - -
17/02:30am 8.3 NW 9 11 1012.8 - - - Cloudy 10 - - - -
17/02:00am 7.1 NW 9 11 1012.8 - - - Partly cloudy 10 - - - -
17/01:30am 5.8 NW 8 9 1013.3 - - - - 10 - - - -
17/01:00am 7.3 NW 8 10 1013.3 - - - - 10 - - - -
17/12:30am 7.2 NNW 6 8 1013.4 - - - Partly cloudy 10 - - - -
17/12:00am 6.9 NW 6 8 1013.4 - - - Mostly clear 10 - - - -
 
Date/Time
EST
Temp

°C
Wind Pressure Rain
since 9am
mm
Weather Cloud Vis
km
Sea
Height
m
Swell
Dir
 
Speed
knots
Gust
knots
hPa Trend Height
m
Period
s
Dir
16/11:30pm 7.7 NW 6 7 1013.5 - - - Partly cloudy 10 - - - -
16/11:00pm 7.6 NW 5 6 1013.7 - - - Partly cloudy 10 - - - -
16/10:30pm 7.6 NW 7 9 1013.9 - - - Partly cloudy 10 - - - -
16/10:00pm 7.0 NW 7 8 1014.0 - - - Partly cloudy 10 - - - -
16/09:30pm 6.9 WNW 6 7 1013.8 - - - - 10 - - - -
16/09:00pm 6.6 NW 8 9 1013.8 - 0.0 - - 10 - - - -
16/08:30pm 7.1 NW 4 5 1013.7 - - - - 10 - - - -
16/08:00pm 8.7 WSW 3 5 1013.5 - - - - 10 - - - -
16/07:30pm 10.5 W 5 8 1013.2 - - - - 10 - - - -
16/07:00pm 11.3 WSW 7 10 1012.9 - - - - 10 - - - -
16/06:30pm 12.1 SSW 8 12 1012.7 - - - Partly cloudy 10 - - - -
16/06:00pm 12.3 SW 10 13 1012.3 - - - Mostly clear 10 - - - -
16/05:30pm 12.8 SSW 9 12 1012.0 - - - Partly cloudy 10 - - - -
16/05:00pm 12.5 SSW 11 15 1011.7 - - - Partly cloudy 10 - - - -
16/04:30pm 13.2 SW 13 18 1011.4 - - - Partly cloudy 10 - - - -
16/04:00pm 13.4 SW 8 11 1011.0 - - - Partly cloudy 10 - - - -
16/03:30pm 13.0 SW 9 12 1010.8 - - - Partly cloudy 10 - - - -
16/03:03pm 12.7 WSW 12 18 1010.7 - - - Partly cloudy 9 - - - -
16/03:00pm 12.7 WSW 12 18 1010.7 - - - Cloudy 8 - - - -
16/02:52pm 13.1 WSW 11 15 1010.6 - - - - 7 - - - -
16/02:30pm 13.1 SW 13 19 1010.5 - 0.6 - Partly cloudy 10 - - - -
16/02:14pm 13.1 SW 13 19 1010.3 - 0.6 - Partly cloudy 10 - - - -
16/02:00pm 12.7 SW 16 23 1010.2 - 0.6 - Partly cloudy 5 - - - -
16/01:59pm 12.7 SW 16 23 1010.2 - 0.6 - Partly cloudy 5 - - - -
16/01:54pm 12.6 SW 16 21 1010.2 - 0.4 - Partly cloudy 7 - - - -
16/01:30pm 13.2 SSW 19 24 1010.0 - 0.0 - Partly cloudy 10 - - - -
16/01:01pm 14.0 SW 17 23 1009.9 - 0.0 - Partly cloudy 10 - - - -
16/01:00pm 14.0 SW 17 23 1009.9 - 0.0 - Partly cloudy 10 - - - -
16/12:30pm 14.0 SSW 14 19 1010.0 - 0.0 - Partly cloudy 10 - - - -
16/12:00pm 14.1 SW 11 15 1010.2 - 0.0 - Cloudy 10 - - - -
16/11:30am 14.2 SW 12 16 1010.1 - 0.0 - Partly cloudy 10 - - - -
16/11:00am 14.5 WSW 13 17 1010.2 - 0.0 - Cloudy 10 - - - -
16/10:56am 14.4 WSW 12 17 1010.2 - 0.0 - Cloudy 10 - - - -
16/10:30am 14.2 WSW 13 18 1010.1 - 0.0 - Cloudy 10 - - - -
16/10:00am 14.3 WSW 11 16 1010.1 - 0.0 - Cloudy 10 - - - -
16/09:30am 13.8 WSW 10 14 1009.9 - 0.0 - Cloudy 10 - - - -
16/09:00am 13.4 W 10 14 1010.0 - 0.0 - Cloudy 10 - - - -
16/08:35am 12.6 W 10 13 1010.0 - 0.0 - Partly cloudy 10 - - - -
16/08:30am 12.5 W 10 14 1010.0 - 0.0 - Partly cloudy 10 - - - -
16/08:00am 12.5 W 10 15 1009.7 - 0.0 - Partly cloudy 10 - - - -
16/07:30am 12.2 W 8 11 1009.4 - 0.0 - Partly cloudy 10 - - - -
16/07:00am 12.2 WSW 8 10 1009.1 - 0.0 - Cloudy 10 - - - -
16/06:49am 12.2 SW 9 13 1009.0 - 0.0 - Partly cloudy 10 - - - -
16/06:30am 12.1 SSW 7 9 1008.7 - 0.0 - Cloudy 10 - - - -
16/06:00am 11.6 SW 7 9 1008.3 - 0.0 - Mostly cloudy 10 - - - -
16/05:30am 11.0 WSW 7 9 1008.0 - 0.0 - Partly cloudy 10 - - - -
16/05:00am 10.1 W 8 10 1007.8 - 0.0 - Partly cloudy 10 - - - -
16/04:58am 10.0 W 8 10 1007.8 - 0.0 - Partly cloudy 10 - - - -
16/04:30am 7.2 WNW 6 7 1007.3 - 0.0 - - 4 - - - -
16/04:00am 7.7 WNW 5 6 1007.2 - 0.0 - - 6 - - - -
16/03:30am 7.6 WNW 6 6 1007.0 - 0.0 - - 8 - - - -
16/03:22am 7.0 NW 6 7 1007.1 - 0.0 - - 7 - - - -
16/03:14am 7.6 NW 6 7 1007.0 - 0.0 - - 8 - - - -
16/03:00am 7.7 NW 6 8 1007.1 - 0.0 - - 7 - - - -
16/02:56am 7.5 NW 7 8 1007.1 - 0.0 - - 7 - - - -
16/02:30am 7.7 NW 6 7 1007.3 - 0.0 - - 9 - - - -
16/02:00am 8.2 NW 7 8 1007.6 - 0.0 - - 10 - - - -
16/01:30am 9.0 NW 6 7 1007.9 - 0.0 - - 10 - - - -
16/01:00am 9.4 S 6 7 1008.3 - 0.0 - - 10 - - - -
16/12:30am 9.5 S 3 5 1008.4 - 0.0 - - 10 - - - -
16/12:00am 11.1 S 1 5 1008.5 - 0.0 - Partly cloudy 10 - - - -

Other Formats:

Comma delimited format used in spreadsheet applications
http://www.bom.gov.au/fwo/IDV60701/IDV60701.94865.axf

JavaScript Object Notation format (JSON) in row-major order
http://www.bom.gov.au/fwo/IDV60701/IDV60701.94865.json